^^

Weather Underground History

Daily Summary for May 9, 2019 Units:  Metric    English   Both
Daily Weekly Monthly Yearly Custom
  High: Low: Average:
Temperature: 13.9 °C 7.2 °C 10 °C
Dew Point: 9.3 °C 5.6 °C 7.3 °C
Humidity: 93.3% 66.1% 84%
Wind Speed: 18.3km/h 0.9km/h 8.3km/h
Wind Gust: 30.6km/h - -
Wind- - WSW
Pressure: 1002.8 hPa 1000.0 hPa -
Precipitation: 0.0 mm    
Historical Graphs
 
 
Tabular Data for May 9, 2019
Time Temperature Dew Point Pressure Wind Wind Speed Wind Gust Humidity Rainfall Rate (Hourly) solar
00:04 9 °C 6.9 °C 1001.2 hPa WSW 1.5 km/h 4.8 km/h 87.1% 0.0 mm 0 W/m2
00:09 8.9 °C 6.9 °C 1001.3 hPa WSW 3.2 km/h 8 km/h 87.7% 0.0 mm 0 W/m2
00:14 8.8 °C 6.9 °C 1001.3 hPa WSW 1.5 km/h 6.4 km/h 88% 0.0 mm 0 W/m2
00:19 8.8 °C 6.9 °C 1001.3 hPa WSW 1.5 km/h 8 km/h 88% 0.0 mm 0 W/m2
00:24 8.7 °C 6.8 °C 1001.3 hPa WSW 1.2 km/h 8 km/h 88% 0.0 mm 0 W/m2
00:29 8.7 °C 6.8 °C 1001.2 hPa WSW 1.3 km/h 6.4 km/h 88% 0.0 mm 0 W/m2
00:34 8.6 °C 6.8 °C 1001.3 hPa WSW 0.9 km/h 4.8 km/h 88.7% 0.0 mm 0 W/m2
00:39 8.6 °C 6.8 °C 1001.3 hPa WSW 3 km/h 8 km/h 88.4% 0.0 mm 0 W/m2
00:44 8.6 °C 6.9 °C 1001.2 hPa WSW 3.5 km/h 8 km/h 89% 0.0 mm 0 W/m2
00:49 8.7 °C 6.9 °C 1001.2 hPa WSW 3.8 km/h 9.7 km/h 89% 0.0 mm 0 W/m2
00:54 8.7 °C 7 °C 1001.2 hPa WSW 1.6 km/h 9.7 km/h 89% 0.0 mm 0 W/m2
00:59 8.7 °C 7 °C 1001.1 hPa WSW 2.2 km/h 6.4 km/h 89% 0.0 mm 0 W/m2
01:04 8.7 °C 7 °C 1001.1 hPa WSW 4.5 km/h 8 km/h 89% 0.0 mm 0 W/m2
01:09 8.8 °C 7.1 °C 1001.1 hPa WSW 3 km/h 9.7 km/h 89% 0.0 mm 0 W/m2
01:14 8.7 °C 7 °C 1001.1 hPa WSW 2.1 km/h 6.4 km/h 89% 0.0 mm 0 W/m2
01:19 8.6 °C 6.9 °C 1001.1 hPa WSW 1 km/h 4.8 km/h 89% 0.0 mm 0 W/m2
01:24 8.6 °C 6.8 °C 1001.0 hPa WSW 4 km/h 6.4 km/h 89% 0.0 mm 0 W/m2
01:29 8.5 °C 6.9 °C 1000.9 hPa WSW 3.8 km/h 8 km/h 89.7% 0.0 mm 0 W/m2
01:34 8.6 °C 7 °C 1000.8 hPa WSW 4.7 km/h 9.7 km/h 90% 0.0 mm 0 W/m2
01:39 8.6 °C 7 °C 1000.8 hPa SW 6.6 km/h 12.9 km/h 90% 0.0 mm 0 W/m2
01:44 8.7 °C 7.1 °C 1000.8 hPa WSW 6.4 km/h 14.5 km/h 90.1% 0.0 mm 0 W/m2
01:49 8.7 °C 7.4 °C 1000.8 hPa SW 7.3 km/h 14.5 km/h 91% 0.0 mm 0 W/m2
01:54 8.8 °C 7.4 °C 1000.9 hPa WSW 6.3 km/h 14.5 km/h 91% 0.0 mm 0 W/m2
01:59 8.8 °C 7.4 °C 1001.0 hPa WSW 6.8 km/h 12.9 km/h 91% 0.0 mm 0 W/m2
02:04 8.9 °C 7.4 °C 1001.0 hPa WSW 5.2 km/h 11.3 km/h 90.7% 0.0 mm 0 W/m2
02:09 8.9 °C 7.4 °C 1001.0 hPa WSW 6.9 km/h 14.5 km/h 90.2% 0.0 mm 0 W/m2
02:14 8.9 °C 7.4 °C 1001.0 hPa WSW 6.4 km/h 11.3 km/h 90% 0.0 mm 0 W/m2
02:19 8.9 °C 7.4 °C 1001.0 hPa WSW 5.7 km/h 11.3 km/h 90% 0.0 mm 0 W/m2
02:24 8.9 °C 7.4 °C 1001.0 hPa WSW 6.2 km/h 11.3 km/h 90% 0.0 mm 0 W/m2
02:29 8.9 °C 7.4 °C 1001.0 hPa WSW 4.3 km/h 9.7 km/h 90% 0.0 mm 0 W/m2
02:34 8.9 °C 7.4 °C 1001.0 hPa West 5.9 km/h 11.3 km/h 90% 0.0 mm 0 W/m2
02:39 8.9 °C 7.4 °C 1000.9 hPa WSW 7 km/h 11.3 km/h 90.2% 0.0 mm 0 W/m2
02:44 8.9 °C 7.5 °C 1000.9 hPa West 5.2 km/h 11.3 km/h 90.5% 0.0 mm 0 W/m2
02:49 8.9 °C 7.4 °C 1000.9 hPa WSW 6.6 km/h 16.1 km/h 90% 0.0 mm 0 W/m2
02:54 8.9 °C 7.4 °C 1000.8 hPa SW 5.5 km/h 16.1 km/h 90.2% 0.0 mm 0 W/m2
02:59 8.9 °C 7.4 °C 1000.8 hPa West 5.7 km/h 9.7 km/h 90.7% 0.0 mm 0 W/m2
03:04 8.8 °C 7.5 °C 1000.8 hPa WSW 7.1 km/h 14.5 km/h 91% 0.0 mm 0 W/m2
03:09 8.8 °C 7.5 °C 1000.8 hPa West 4.7 km/h 11.3 km/h 91% 0.0 mm 0 W/m2
03:14 8.8 °C 7.4 °C 1000.8 hPa West 4.1 km/h 8 km/h 91% 0.0 mm 0 W/m2
03:19 8.8 °C 7.4 °C 1000.8 hPa West 4.2 km/h 8 km/h 91% 0.0 mm 0 W/m2
03:24 8.7 °C 7.3 °C 1000.7 hPa WSW 5.6 km/h 11.3 km/h 90.7% 0.0 mm 0 W/m2
03:29 8.8 °C 7.4 °C 1000.7 hPa WSW 5.4 km/h 11.3 km/h 91% 0.0 mm 0 W/m2
03:34 8.8 °C 7.4 °C 1000.7 hPa WSW 2.5 km/h 8 km/h 91% 0.0 mm 0 W/m2
03:39 8.8 °C 7.4 °C 1000.7 hPa WSW 4.6 km/h 9.7 km/h 91% 0.0 mm 0 W/m2
03:44 8.8 °C 7.4 °C 1000.7 hPa WSW 5.6 km/h 11.3 km/h 91% 0.0 mm 0 W/m2
03:49 8.8 °C 7.4 °C 1000.7 hPa SW 5.9 km/h 11.3 km/h 91% 0.0 mm 0 W/m2
03:54 8.9 °C 7.4 °C 1000.7 hPa WSW 7 km/h 14.5 km/h 90.5% 0.0 mm 0 W/m2
03:59 8.9 °C 7.4 °C 1000.6 hPa SW 4.6 km/h 14.5 km/h 90% 0.0 mm 0 W/m2
04:04 8.9 °C 7.4 °C 1000.6 hPa WSW 5.8 km/h 11.3 km/h 90% 0.0 mm 0 W/m2
04:09 9 °C 7.5 °C 1000.5 hPa WSW 6.5 km/h 11.3 km/h 90.2% 0.0 mm 0 W/m2
04:14 9 °C 8 °C 1000.5 hPa West 5.1 km/h 11.3 km/h 93.3% 0.0 mm 0 W/m2
04:19 9 °C 7.5 °C 1000.5 hPa WSW 5.3 km/h 9.7 km/h 90.6% 0.0 mm 0 W/m2
04:24 9 °C 7.5 °C 1000.5 hPa WSW 4.5 km/h 9.7 km/h 90% 0.0 mm 0 W/m2
04:29 9 °C 7.5 °C 1000.4 hPa WSW 5 km/h 9.7 km/h 90% 0.0 mm 0 W/m2
04:34 9 °C 7.4 °C 1000.4 hPa WSW 2.4 km/h 8 km/h 90% 0.0 mm 0 W/m2
04:39 8.9 °C 7.4 °C 1000.4 hPa WSW 2.1 km/h 8 km/h 90% 0.0 mm 0 W/m2
04:44 8.9 °C 7.4 °C 1000.4 hPa WSW 3.6 km/h 8 km/h 90% 0.0 mm 0 W/m2
04:49 8.9 °C 7.3 °C 1000.5 hPa WSW 3.1 km/h 8 km/h 89.5% 0.0 mm 0 W/m2
04:54 8.9 °C 7.3 °C 1000.5 hPa SW 5.1 km/h 8 km/h 89.8% 0.0 mm 0 W/m2
04:59 8.9 °C 7.4 °C 1000.5 hPa SW 5.2 km/h 8 km/h 90% 0.0 mm 0 W/m2
05:04 8.9 °C 7.4 °C 1000.5 hPa WSW 4.6 km/h 9.7 km/h 90% 0.0 mm 0 W/m2
05:09 8.9 °C 7.4 °C 1000.4 hPa WSW 3.7 km/h 8 km/h 89.9% 0.0 mm 0 W/m2
05:14 8.9 °C 7.3 °C 1000.4 hPa WSW 4.3 km/h 8 km/h 89.7% 0.0 mm 0 W/m2
05:19 8.9 °C 7.3 °C 1000.4 hPa WSW 4 km/h 6.4 km/h 90% 0.0 mm 0 W/m2
05:24 8.8 °C 7.3 °C 1000.4 hPa WSW 4.6 km/h 9.7 km/h 90% 0.0 mm 0 W/m2
05:29 8.8 °C 7.3 °C 1000.3 hPa SW 5.8 km/h 11.3 km/h 90% 0.0 mm 0 W/m2
05:34 8.8 °C 7.3 °C 1000.3 hPa SW 3.9 km/h 9.7 km/h 90% 0.0 mm 0 W/m2
05:39 8.8 °C 7.2 °C 1000.3 hPa SW 4.8 km/h 9.7 km/h 90% 0.0 mm 0 W/m2
05:44 8.7 °C 7.2 °C 1000.3 hPa SW 5.2 km/h 11.3 km/h 90% 0.0 mm 0 W/m2
05:49 8.7 °C 7.2 °C 1000.3 hPa WSW 5.6 km/h 11.3 km/h 90% 0.0 mm 0 W/m2
05:54 8.7 °C 7.1 °C 1000.2 hPa WSW 7.1 km/h 11.3 km/h 90% 0.0 mm 0 W/m2
05:59 8.6 °C 7.1 °C 1000.2 hPa WSW 7.2 km/h 14.5 km/h 90% 0.0 mm 0 W/m2
06:04 8.6 °C 7 °C 1000.1 hPa WSW 7.7 km/h 16.1 km/h 90% 0.0 mm 0 W/m2
06:09 8.6 °C 7 °C 1000.1 hPa SW 8.6 km/h 17.7 km/h 90% 0.0 mm 0 W/m2
06:14 8.6 °C 7 °C 1000.1 hPa WSW 8.9 km/h 17.7 km/h 90% 0.0 mm 0 W/m2
06:19 8.5 °C 7 °C 1000.1 hPa SW 7.6 km/h 14.5 km/h 90% 0.0 mm 0 W/m2
06:24 8.5 °C 7 °C 1000.1 hPa WSW 7.6 km/h 16.1 km/h 90% 0.0 mm 0 W/m2
06:29 8.4 °C 6.9 °C 1000.0 hPa WSW 6.9 km/h 11.3 km/h 90% 0.0 mm 0 W/m2
06:34 8.4 °C 6.9 °C 1000.1 hPa WSW 6.8 km/h 12.9 km/h 90% 0.0 mm 0 W/m2
06:39 8.4 °C 6.9 °C 1000.1 hPa WSW 6.2 km/h 11.3 km/h 90% 0.0 mm 0 W/m2
06:44 8.4 °C 6.9 °C 1000.1 hPa WSW 7 km/h 11.3 km/h 90% 0.0 mm 0 W/m2
06:49 8.4 °C 6.9 °C 1000.1 hPa SW 8.3 km/h 16.1 km/h 90.1% 0.0 mm 0 W/m2
06:54 8.4 °C 7 °C 1000.1 hPa WSW 7.1 km/h 16.1 km/h 90.6% 0.0 mm 0 W/m2
06:59 8.4 °C 6.9 °C 1000.1 hPa WSW 7.1 km/h 14.5 km/h 90% 0.0 mm 0 W/m2
07:04 8.4 °C 7 °C 1000.2 hPa WSW 7.5 km/h 14.5 km/h 90.9% 0.0 mm 0 W/m2
07:09 8.4 °C 7 °C 1000.1 hPa WSW 6.7 km/h 12.9 km/h 91% 0.0 mm 0 W/m2
07:14 8.4 °C 7 °C 1000.2 hPa WSW 6.9 km/h 12.9 km/h 91% 0.0 mm 0 W/m2
07:19 8.4 °C 7 °C 1000.1 hPa WSW 6.8 km/h 11.3 km/h 91% 0.0 mm 0 W/m2
07:24 8.4 °C 7 °C 1000.1 hPa WSW 5.7 km/h 11.3 km/h 91% 0.0 mm 0 W/m2
07:29 8.4 °C 7 °C 1000.1 hPa SW 6.2 km/h 11.3 km/h 91% 0.0 mm 5 W/m2
07:34 8.4 °C 7 °C 1000.0 hPa WSW 7.5 km/h 14.5 km/h 91% 0.0 mm 9 W/m2
07:39 8.4 °C 7 °C 1000.0 hPa West 5.5 km/h 9.7 km/h 91% 0.0 mm 12 W/m2
07:44 8.4 °C 7 °C 1000.0 hPa WSW 6.7 km/h 11.3 km/h 91% 0.0 mm 16 W/m2
07:49 8.4 °C 7 °C 1000.0 hPa WSW 8.2 km/h 12.9 km/h 91% 0.0 mm 18 W/m2
07:54 8.5 °C 7.1 °C 1000.1 hPa WSW 7.2 km/h 12.9 km/h 91% 0.0 mm 21 W/m2
07:59 8.6 °C 7.2 °C 1000.2 hPa WSW 4.4 km/h 11.3 km/h 91% 0.0 mm 25 W/m2
08:04 8.5 °C 7.2 °C 1000.2 hPa WSW 2.7 km/h 11.3 km/h 91% 0.0 mm 28 W/m2
08:09 8.5 °C 7.1 °C 1000.4 hPa WSW 4 km/h 8 km/h 91% 0.0 mm 30 W/m2
08:14 8.5 °C 7.2 °C 1000.4 hPa West 3.9 km/h 9.7 km/h 91% 0.0 mm 32 W/m2
08:19 8.6 °C 7.2 °C 1000.4 hPa West 5.2 km/h 9.7 km/h 91.2% 0.0 mm 30 W/m2
08:24 8.6 °C 7.4 °C 1000.4 hPa West 6.4 km/h 11.3 km/h 92% 0.0 mm 53 W/m2
08:29 8.7 °C 7.5 °C 1000.4 hPa West 6 km/h 9.7 km/h 92% 0.0 mm 63 W/m2
08:34 8.8 °C 7.4 °C 1000.3 hPa SW 7.7 km/h 12.9 km/h 91.3% 0.0 mm 137 W/m2
08:39 8.9 °C 7.7 °C 1000.3 hPa WSW 7.1 km/h 11.3 km/h 92% 0.0 mm 162 W/m2
08:44 9 °C 7.8 °C 1000.2 hPa WSW 7.4 km/h 12.9 km/h 92% 0.0 mm 176 W/m2
08:49 9.2 °C 7.9 °C 1000.2 hPa WSW 6.9 km/h 12.9 km/h 92% 0.0 mm 207 W/m2
08:54 9.3 °C 8.1 °C 1000.1 hPa WSW 7.6 km/h 16.1 km/h 92% 0.0 mm 221 W/m2
08:59 9.5 °C 8.2 °C 1000.1 hPa WSW 8.3 km/h 14.5 km/h 92% 0.0 mm 202 W/m2
09:04 9.6 °C 8.3 °C 1000.1 hPa WSW 10.5 km/h 14.5 km/h 91.7% 0.0 mm 229 W/m2
09:09 9.7 °C 8.3 °C 1000.2 hPa WSW 11 km/h 17.7 km/h 91% 0.0 mm 220 W/m2
09:14 9.8 °C 8.4 °C 1000.2 hPa WSW 10.7 km/h 17.7 km/h 91% 0.0 mm 185 W/m2
09:19 9.8 °C 8.3 °C 1000.2 hPa WSW 9.7 km/h 17.7 km/h 90.1% 0.0 mm 193 W/m2
09:24 9.9 °C 8.3 °C 1000.1 hPa WSW 10.2 km/h 19.3 km/h 90% 0.0 mm 260 W/m2
09:29 10 °C 8.4 °C 1000.1 hPa WSW 11.9 km/h 19.3 km/h 90% 0.0 mm 285 W/m2
09:34 10.1 °C 8.4 °C 1000.0 hPa WSW 11 km/h 19.3 km/h 89.5% 0.0 mm 306 W/m2
09:39 10.2 °C 8.5 °C 1000.1 hPa WSW 11.9 km/h 19.3 km/h 89.4% 0.0 mm 301 W/m2
09:44 10.3 °C 8.5 °C 1000.2 hPa WSW 11.6 km/h 19.3 km/h 89% 0.0 mm 306 W/m2
09:49 10.4 °C 8.7 °C 1000.1 hPa WSW 8.9 km/h 17.7 km/h 89% 0.0 mm 308 W/m2
09:54 10.6 °C 8.7 °C 1000.1 hPa WSW 9.7 km/h 16.1 km/h 88.3% 0.0 mm 329 W/m2
09:59 10.7 °C 8.8 °C 1000.2 hPa West 12 km/h 24.1 km/h 88% 0.0 mm 350 W/m2
10:04 10.9 °C 8.8 °C 1000.2 hPa WSW 10.6 km/h 17.7 km/h 86.8% 0.0 mm 339 W/m2
10:09 11 °C 8.9 °C 1000.2 hPa West 9.4 km/h 17.7 km/h 86.8% 0.0 mm 355 W/m2
10:14 11.2 °C 9 °C 1000.3 hPa West 9.8 km/h 24.1 km/h 86% 0.0 mm 359 W/m2
10:19 11.4 °C 9 °C 1000.3 hPa WSW 10.8 km/h 17.7 km/h 85.6% 0.0 mm 401 W/m2
10:24 11.5 °C 9.1 °C 1000.3 hPa West 10.2 km/h 17.7 km/h 85% 0.0 mm 371 W/m2
10:29 11.6 °C 9 °C 1000.2 hPa West 9.6 km/h 16.1 km/h 84.1% 0.0 mm 295 W/m2
10:34 11.5 °C 8.9 °C 1000.3 hPa West 11.8 km/h 22.5 km/h 83.7% 0.0 mm 341 W/m2
10:39 11.6 °C 8.8 °C 1000.4 hPa West 11.3 km/h 22.5 km/h 83% 0.0 mm 214 W/m2
10:44 11.6 °C 8.8 °C 1000.4 hPa West 13.1 km/h 22.5 km/h 82.9% 0.0 mm 214 W/m2
10:49 11.7 °C 8.9 °C 1000.2 hPa West 11 km/h 20.9 km/h 82.6% 0.0 mm 550 W/m2
10:54 12 °C 9.1 °C 1000.2 hPa West 12.4 km/h 22.5 km/h 82.5% 0.0 mm 550 W/m2
10:59 12 °C 8.8 °C 1000.2 hPa West 9.5 km/h 17.7 km/h 81% 0.0 mm 316 W/m2
11:04 11.9 °C 8.7 °C 1000.2 hPa West 10.1 km/h 16.1 km/h 81% 0.0 mm 323 W/m2
11:09 11.9 °C 8.8 °C 1000.2 hPa West 10.2 km/h 20.9 km/h 81.8% 0.0 mm 482 W/m2
11:14 12.1 °C 9.1 °C 1000.2 hPa West 13.7 km/h 24.1 km/h 82% 0.0 mm 506 W/m2
11:19 12.2 °C 8.9 °C 1000.2 hPa West 12.4 km/h 24.1 km/h 80.2% 0.0 mm 489 W/m2
11:24 12.3 °C 9 °C 1000.2 hPa West 13 km/h 22.5 km/h 80.2% 0.0 mm 494 W/m2
11:29 12.3 °C 8.9 °C 1000.2 hPa West 13.3 km/h 27.4 km/h 79.9% 0.0 mm 571 W/m2
11:34 12.4 °C 9 °C 1000.3 hPa West 13.8 km/h 27.4 km/h 79.8% 0.0 mm 571 W/m2
11:39 12.6 °C 9.3 °C 1000.3 hPa WSW 13.9 km/h 24.1 km/h 80.2% 0.0 mm 596 W/m2
11:44 12.6 °C 9.2 °C 1000.1 hPa WSW 14.9 km/h 25.7 km/h 79.4% 0.0 mm 550 W/m2
11:49 12.7 °C 9.1 °C 1000.0 hPa WSW 15.7 km/h 30.6 km/h 79% 0.0 mm 633 W/m2
11:54 12.6 °C 8.8 °C 1000.1 hPa West 18.1 km/h 30.6 km/h 77.6% 0.0 mm 591 W/m2
11:59 12.3 °C 8.2 °C 1000.1 hPa West 16 km/h 25.7 km/h 76.1% 0.0 mm 591 W/m2
12:04 12.2 °C 8.4 °C 1000.1 hPa West 15 km/h 29 km/h 77.5% 0.0 mm 559 W/m2
12:09 12.3 °C 8.4 °C 1000.2 hPa West 16.4 km/h 29 km/h 77% 0.0 mm 527 W/m2
12:14 12.3 °C 8.4 °C 1000.1 hPa West 15.6 km/h 25.7 km/h 77% 0.0 mm 642 W/m2
12:19 12.7 °C 8.8 °C 1000.1 hPa West 12.7 km/h 24.1 km/h 77.2% 0.0 mm 642 W/m2
12:24 12.9 °C 8.8 °C 1000.1 hPa WSW 15.8 km/h 29 km/h 76.1% 0.0 mm 570 W/m2
12:29 12.6 °C 7.9 °C 1000.1 hPa West 17.6 km/h 30.6 km/h 73.3% 0.0 mm 285 W/m2
12:34 12.3 °C 7.8 °C 1000.1 hPa West 16.2 km/h 29 km/h 73.7% 0.0 mm 323 W/m2
12:39 12.2 °C 7.4 °C 1000.1 hPa West 16.1 km/h 30.6 km/h 72.5% 0.0 mm 262 W/m2
12:44 12.2 °C 7.4 °C 1000.1 hPa West 12.5 km/h 24.1 km/h 72.5% 0.0 mm 262 W/m2
12:49 12.2 °C 7.5 °C 1000.1 hPa West 13.4 km/h 24.1 km/h 72.8% 0.0 mm 299 W/m2
12:54 12.3 °C 7.8 °C 1000.1 hPa West 12.1 km/h 25.7 km/h 73.8% 0.0 mm 325 W/m2
12:59 12.5 °C 7.8 °C 1000.2 hPa West 14.8 km/h 25.7 km/h 73.1% 0.0 mm 517 W/m2
13:04 12.7 °C 7.8 °C 1000.2 hPa West 14.6 km/h 27.4 km/h 72% 0.0 mm 599 W/m2
13:09 12.9 °C 8.1 °C 1000.0 hPa West 13.1 km/h 24.1 km/h 72.5% 0.0 mm 599 W/m2
13:14 13 °C 7.9 °C 1000.1 hPa West 16.6 km/h 30.6 km/h 71.1% 0.0 mm 663 W/m2
13:19 13.1 °C 7.8 °C 1000.1 hPa WSW 16.9 km/h 29 km/h 70.5% 0.0 mm 550 W/m2
13:24 13.2 °C 7.8 °C 1000.3 hPa West 16.6 km/h 30.6 km/h 69.7% 0.0 mm 647 W/m2
13:29 13 °C 7.4 °C 1000.3 hPa West 14.8 km/h 27.4 km/h 68.7% 0.0 mm 216 W/m2
13:34 12.6 °C 7.1 °C 1000.3 hPa West 15.5 km/h 27.4 km/h 69.3% 0.0 mm 183 W/m2
13:39 12.3 °C 7 °C 1000.4 hPa West 14.4 km/h 24.1 km/h 70.3% 0.0 mm 172 W/m2
13:44 12.1 °C 7.3 °C 1000.3 hPa West 12.1 km/h 25.7 km/h 72.2% 0.0 mm 487 W/m2
13:49 12.5 °C 8 °C 1000.3 hPa West 8.1 km/h 14.5 km/h 73.7% 0.0 mm 636 W/m2
13:54 13.1 °C 8.3 °C 1000.2 hPa WNW 9.9 km/h 17.7 km/h 72.5% 0.0 mm 613 W/m2
13:59 13.2 °C 7.9 °C 1000.1 hPa West 10.9 km/h 25.7 km/h 70.3% 0.0 mm 385 W/m2
14:04 13.2 °C 7.7 °C 1000.1 hPa West 11.2 km/h 25.7 km/h 69.3% 0.0 mm 642 W/m2
14:09 13.6 °C 8.2 °C 1000.2 hPa WNW 11.9 km/h 20.9 km/h 69.9% 0.0 mm 642 W/m2
14:14 13.9 °C 7.9 °C 1000.3 hPa WSW 18.3 km/h 30.6 km/h 67.2% 0.0 mm 584 W/m2
14:19 13.5 °C 7.2 °C 1000.3 hPa West 12.3 km/h 24.1 km/h 66.1% 0.0 mm 107 W/m2
14:24 12.9 °C 7.1 °C 1000.3 hPa West 11.8 km/h 20.9 km/h 68.1% 0.0 mm 214 W/m2
14:29 12.8 °C 7.4 °C 1000.2 hPa West 14.2 km/h 25.7 km/h 69.8% 0.0 mm 531 W/m2
14:34 12.9 °C 7.4 °C 1000.3 hPa West 16.1 km/h 30.6 km/h 69.5% 0.0 mm 531 W/m2
14:39 13 °C 7.2 °C 1000.4 hPa WSW 17.3 km/h 29 km/h 68.1% 0.0 mm 362 W/m2
14:44 12.9 °C 7.2 °C 1000.3 hPa West 13.5 km/h 24.1 km/h 68.2% 0.0 mm 450 W/m2
14:49 13.1 °C 7.5 °C 1000.4 hPa West 14.3 km/h 20.9 km/h 68.9% 0.0 mm 408 W/m2
14:54 12.7 °C 7.1 °C 1000.4 hPa WSW 11.5 km/h 20.9 km/h 68.7% 0.0 mm 102 W/m2
14:59 12.3 °C 7.1 °C 1000.5 hPa WNW 14.4 km/h 24.1 km/h 70.4% 0.0 mm 149 W/m2
15:04 11.9 °C 7.1 °C 1000.4 hPa West 11.7 km/h 25.7 km/h 72.5% 0.0 mm 179 W/m2
15:09 11.7 °C 7.2 °C 1000.5 hPa West 6.2 km/h 12.9 km/h 74% 0.0 mm 102 W/m2
15:14 11.7 °C 7.4 °C 1000.5 hPa West 7.6 km/h 14.5 km/h 75% 0.0 mm 155 W/m2
15:19 11.7 °C 7.4 °C 1000.5 hPa West 6.9 km/h 14.5 km/h 75% 0.0 mm 165 W/m2
15:24 11.8 °C 7.4 °C 1000.6 hPa WNW 7.6 km/h 14.5 km/h 74.4% 0.0 mm 134 W/m2
15:29 11.8 °C 7.2 °C 1000.6 hPa WNW 9.4 km/h 17.7 km/h 73.5% 0.0 mm 114 W/m2
15:34 11.8 °C 6.9 °C 1000.6 hPa West 6.9 km/h 17.7 km/h 72% 0.0 mm 91 W/m2
15:39 11.9 °C 7.1 °C 1000.6 hPa West 8.3 km/h 16.1 km/h 72.7% 0.0 mm 130 W/m2
15:44 12 °C 7.3 °C 1000.6 hPa West 11.2 km/h 17.7 km/h 73% 0.0 mm 232 W/m2
15:49 12.2 °C 7.3 °C 1000.6 hPa WSW 15.1 km/h 24.1 km/h 72.2% 0.0 mm 248 W/m2
15:54 12.3 °C 7.2 °C 1000.6 hPa WSW 14.5 km/h 24.1 km/h 71.1% 0.0 mm 223 W/m2
15:59 12.2 °C 7.3 °C 1000.6 hPa West 11.9 km/h 22.5 km/h 71.8% 0.0 mm 137 W/m2
16:04 12.1 °C 7.1 °C 1000.6 hPa West 13 km/h 25.7 km/h 71.6% 0.0 mm 123 W/m2
16:09 12 °C 6.9 °C 1000.6 hPa West 11.8 km/h 25.7 km/h 71% 0.0 mm 113 W/m2
16:14 11.9 °C 6.8 °C 1000.6 hPa West 11.5 km/h 22.5 km/h 71.2% 0.0 mm 113 W/m2
16:19 11.8 °C 7.1 °C 1000.6 hPa WSW 10.8 km/h 20.9 km/h 72.5% 0.0 mm 113 W/m2
16:24 11.8 °C 6.9 °C 1000.7 hPa West 15.4 km/h 25.7 km/h 72.2% 0.0 mm 120 W/m2
16:29 11.8 °C 6.9 °C 1000.6 hPa West 13 km/h 20.9 km/h 72% 0.0 mm 120 W/m2
16:34 11.7 °C 7 °C 1000.7 hPa WSW 10.8 km/h 20.9 km/h 72.8% 0.0 mm 139 W/m2
16:39 11.8 °C 7.2 °C 1000.7 hPa WSW 10.9 km/h 19.3 km/h 73.7% 0.0 mm 137 W/m2
16:44 11.8 °C 7.3 °C 1000.6 hPa WSW 10 km/h 17.7 km/h 73.8% 0.0 mm 139 W/m2
16:49 11.7 °C 7.3 °C 1000.7 hPa West 9.7 km/h 16.1 km/h 74% 0.0 mm 114 W/m2
16:54 11.7 °C 7.2 °C 1000.8 hPa WSW 10.2 km/h 16.1 km/h 74% 0.0 mm 105 W/m2
16:59 11.7 °C 7.2 °C 1000.8 hPa WSW 10.7 km/h 22.5 km/h 74% 0.0 mm 105 W/m2
17:04 11.6 °C 7.1 °C 1000.8 hPa WSW 11.6 km/h 22.5 km/h 74% 0.0 mm 97 W/m2
17:09 11.6 °C 7.1 °C 1000.8 hPa West 11.4 km/h 22.5 km/h 74.3% 0.0 mm 86 W/m2
17:14 11.5 °C 7.2 °C 1000.8 hPa WSW 9.4 km/h 16.1 km/h 75% 0.0 mm 83 W/m2
17:19 11.4 °C 7.3 °C 1000.8 hPa West 8.4 km/h 16.1 km/h 75.5% 0.0 mm 77 W/m2
17:24 11.4 °C 7.3 °C 1000.8 hPa WSW 8 km/h 12.9 km/h 76% 0.0 mm 72 W/m2
17:29 11.3 °C 7.3 °C 1000.8 hPa WSW 7.9 km/h 12.9 km/h 76.3% 0.0 mm 65 W/m2
17:34 11.3 °C 7.3 °C 1000.8 hPa WSW 8.9 km/h 14.5 km/h 76.8% 0.0 mm 56 W/m2
17:39 11.2 °C 7.3 °C 1000.8 hPa West 9.4 km/h 14.5 km/h 77% 0.0 mm 47 W/m2
17:44 11.1 °C 7.2 °C 1000.8 hPa WSW 8.4 km/h 16.1 km/h 77% 0.0 mm 40 W/m2
17:49 11 °C 7.2 °C 1000.8 hPa WSW 6.7 km/h 9.7 km/h 77% 0.0 mm 35 W/m2
17:54 10.9 °C 7.2 °C 1000.8 hPa West 6.5 km/h 12.9 km/h 77.7% 0.0 mm 32 W/m2
17:59 10.8 °C 7.2 °C 1000.9 hPa WSW 7.4 km/h 12.9 km/h 78% 0.0 mm 28 W/m2
18:04 10.8 °C 7.2 °C 1000.9 hPa WSW 6.9 km/h 12.9 km/h 78.5% 0.0 mm 23 W/m2
18:09 10.7 °C 7.2 °C 1001.0 hPa WSW 7.6 km/h 14.5 km/h 79% 0.0 mm 18 W/m2
18:14 10.6 °C 7.1 °C 1001.0 hPa WSW 7.1 km/h 12.9 km/h 79% 0.0 mm 12 W/m2
18:19 10.6 °C 7.1 °C 1001.0 hPa West 6.5 km/h 14.5 km/h 79% 0.0 mm 9 W/m2
18:24 10.5 °C 7 °C 1001.0 hPa West 5.8 km/h 11.3 km/h 79% 0.0 mm 5 W/m2
18:29 10.4 °C 7 °C 1001.0 hPa West 6 km/h 9.7 km/h 79.9% 0.0 mm 0 W/m2
18:34 10.3 °C 7 °C 1001.0 hPa West 5.9 km/h 9.7 km/h 80% 0.0 mm 0 W/m2
18:39 10.2 °C 6.9 °C 1001.0 hPa West 5.8 km/h 9.7 km/h 80.1% 0.0 mm 0 W/m2
18:44 10.1 °C 7 °C 1001.0 hPa West 4.2 km/h 6.4 km/h 81% 0.0 mm 0 W/m2
18:49 9.9 °C 6.8 °C 1001.0 hPa West 3.1 km/h 6.4 km/h 81% 0.0 mm 0 W/m2
18:54 9.8 °C 6.7 °C 1001.0 hPa West 3.2 km/h 6.4 km/h 81.4% 0.0 mm 0 W/m2
18:59 9.7 °C 6.7 °C 1001.0 hPa West 3.4 km/h 6.4 km/h 82% 0.0 mm 0 W/m2
19:04 9.6 °C 6.8 °C 1001.0 hPa West 4.1 km/h 8 km/h 82.5% 0.0 mm 0 W/m2
19:09 9.6 °C 6.8 °C 1001.1 hPa West 4.2 km/h 8 km/h 83% 0.0 mm 0 W/m2
19:14 9.6 °C 6.8 °C 1001.1 hPa WSW 5.7 km/h 9.7 km/h 83% 0.0 mm 0 W/m2
19:19 9.6 °C 6.8 °C 1001.2 hPa WSW 5.6 km/h 9.7 km/h 83% 0.0 mm 0 W/m2
19:24 9.6 °C 6.9 °C 1001.2 hPa WSW 6.4 km/h 11.3 km/h 83% 0.0 mm 0 W/m2
19:29 9.6 °C 6.9 °C 1001.3 hPa WSW 5.9 km/h 11.3 km/h 83% 0.0 mm 0 W/m2
19:34 9.6 °C 6.8 °C 1001.3 hPa WSW 6.2 km/h 9.7 km/h 83% 0.0 mm 0 W/m2
19:39 9.5 °C 6.8 °C 1001.3 hPa WSW 5.6 km/h 9.7 km/h 83% 0.0 mm 0 W/m2
19:44 9.5 °C 6.7 °C 1001.3 hPa WSW 5.7 km/h 9.7 km/h 83% 0.0 mm 0 W/m2
19:49 9.4 °C 6.7 °C 1001.4 hPa WSW 6.6 km/h 11.3 km/h 83.1% 0.0 mm 0 W/m2
19:54 9.5 °C 6.9 °C 1001.4 hPa WSW 5.9 km/h 9.7 km/h 84% 0.0 mm 0 W/m2
19:59 9.5 °C 7 °C 1001.4 hPa WSW 5.5 km/h 8 km/h 84% 0.0 mm 0 W/m2
20:04 9.6 °C 7 °C 1001.4 hPa WSW 6.8 km/h 11.3 km/h 84% 0.0 mm 0 W/m2
20:09 9.7 °C 7.1 °C 1001.4 hPa WSW 9.7 km/h 19.3 km/h 84% 0.0 mm 0 W/m2
20:14 9.8 °C 7 °C 1001.4 hPa WSW 8.9 km/h 19.3 km/h 83.1% 0.0 mm 0 W/m2
20:19 9.8 °C 7 °C 1001.4 hPa WSW 10.4 km/h 19.3 km/h 83% 0.0 mm 0 W/m2
20:24 9.8 °C 7 °C 1001.4 hPa West 10.3 km/h 17.7 km/h 83% 0.0 mm 0 W/m2
20:29 9.7 °C 7 °C 1001.5 hPa WSW 9.4 km/h 19.3 km/h 83% 0.0 mm 0 W/m2
20:34 9.6 °C 6.9 °C 1001.5 hPa WSW 9.1 km/h 14.5 km/h 83% 0.0 mm 0 W/m2
20:39 9.6 °C 6.8 °C 1001.5 hPa West 9.8 km/h 17.7 km/h 83% 0.0 mm 0 W/m2
20:44 9.5 °C 6.7 °C 1001.6 hPa West 12.3 km/h 19.3 km/h 82.8% 0.0 mm 0 W/m2
20:49 9.5 °C 6.5 °C 1001.6 hPa West 10.3 km/h 17.7 km/h 82% 0.0 mm 0 W/m2
20:54 9.4 °C 6.4 °C 1001.6 hPa West 10.8 km/h 19.3 km/h 82% 0.0 mm 0 W/m2
20:59 9.3 °C 6.4 °C 1001.6 hPa WSW 10 km/h 19.3 km/h 82% 0.0 mm 0 W/m2
21:04 9.3 °C 6.3 °C 1001.5 hPa WSW 9.9 km/h 20.9 km/h 82% 0.0 mm 0 W/m2
21:09 9.1 °C 6.3 °C 1001.5 hPa WSW 8.7 km/h 14.5 km/h 82.4% 0.0 mm 0 W/m2
21:14 9 °C 6.4 °C 1001.6 hPa WSW 8.7 km/h 14.5 km/h 83.6% 0.0 mm 0 W/m2
21:19 8.9 °C 6.1 °C 1001.6 hPa WSW 8.8 km/h 12.9 km/h 83% 0.0 mm 0 W/m2
21:24 8.8 °C 6.2 °C 1001.6 hPa WSW 9.4 km/h 16.1 km/h 83.8% 0.0 mm 0 W/m2
21:29 8.7 °C 6.2 °C 1001.7 hPa WSW 7.5 km/h 11.3 km/h 84% 0.0 mm 0 W/m2
21:34 8.6 °C 6.1 °C 1001.7 hPa West 7.9 km/h 16.1 km/h 84% 0.0 mm 0 W/m2
21:39 8.5 °C 6 °C 1001.7 hPa West 9.3 km/h 17.7 km/h 84.1% 0.0 mm 0 W/m2
21:44 8.5 °C 6.1 °C 1001.8 hPa West 9.7 km/h 17.7 km/h 85% 0.0 mm 0 W/m2
21:49 8.5 °C 6.2 °C 1001.8 hPa West 9.3 km/h 17.7 km/h 85.6% 0.0 mm 0 W/m2
21:54 8.5 °C 6.2 °C 1001.8 hPa WSW 10.4 km/h 19.3 km/h 86% 0.0 mm 0 W/m2
21:59 8.4 °C 6.2 °C 1001.9 hPa WSW 10.4 km/h 17.7 km/h 86% 0.0 mm 0 W/m2
22:04 8.4 °C 6.2 °C 1002.0 hPa WSW 9.4 km/h 16.1 km/h 86% 0.0 mm 0 W/m2
22:09 8.4 °C 6.2 °C 1002.1 hPa West 6.5 km/h 16.1 km/h 86% 0.0 mm 0 W/m2
22:14 8.3 °C 6.1 °C 1002.1 hPa WSW 6.6 km/h 12.9 km/h 86% 0.0 mm 0 W/m2
22:19 8.2 °C 6 °C 1002.1 hPa WSW 7.6 km/h 16.1 km/h 86% 0.0 mm 0 W/m2
22:24 8.1 °C 6 °C 1002.1 hPa WSW 9.7 km/h 17.7 km/h 86.7% 0.0 mm 0 W/m2
22:29 8 °C 6 °C 1002.2 hPa WSW 8.2 km/h 14.5 km/h 87% 0.0 mm 0 W/m2
22:34 7.9 °C 5.9 °C 1002.2 hPa WSW 7.4 km/h 12.9 km/h 87% 0.0 mm 0 W/m2
22:39 7.8 °C 5.8 °C 1002.4 hPa West 8.3 km/h 14.5 km/h 87.3% 0.0 mm 0 W/m2
22:44 7.8 °C 5.9 °C 1002.4 hPa West 7.8 km/h 14.5 km/h 88% 0.0 mm 0 W/m2
22:49 7.8 °C 5.9 °C 1002.4 hPa West 8.6 km/h 16.1 km/h 88% 0.0 mm 0 W/m2
22:54 7.7 °C 5.9 °C 1002.4 hPa WSW 8.5 km/h 14.5 km/h 88% 0.0 mm 0 W/m2
22:59 7.7 °C 5.9 °C 1002.4 hPa West 7.5 km/h 14.5 km/h 88.6% 0.0 mm 0 W/m2
23:04 7.6 °C 5.9 °C 1002.4 hPa West 6.6 km/h 11.3 km/h 89% 0.0 mm 0 W/m2
23:09 7.5 °C 5.8 °C 1002.5 hPa West 5.4 km/h 11.3 km/h 89% 0.0 mm 0 W/m2
23:13 7.4 °C 5.7 °C 1002.5 hPa West 5 km/h 8 km/h 89% 0.0 mm 0 W/m2
23:19 7.3 °C 5.6 °C 1002.6 hPa West 4.3 km/h 11.3 km/h 89% 0.0 mm 0 W/m2
23:24 7.2 °C 5.6 °C 1002.7 hPa West 5.4 km/h 11.3 km/h 89% 0.0 mm 0 W/m2
23:29 7.2 °C 5.7 °C 1002.7 hPa West 4.3 km/h 8 km/h 89.9% 0.0 mm 0 W/m2
23:34 7.2 °C 5.6 °C 1002.8 hPa West 5.3 km/h 9.7 km/h 90% 0.0 mm 0 W/m2
23:39 7.2 °C 5.6 °C 1002.7 hPa West 6.4 km/h 9.7 km/h 90% 0.0 mm 0 W/m2
Compliments of Weather Underground - 4 mb